Time;durP1;ratioP1;P1;durP2;ratioP2;P2;SDS_P1;SDS_P2;PMS_P1;PMS_P2;Temp;Humidity;BMP_temperature;BMP_pressure;BME280_temperature;BME280_humidity;BME280_pressure;Samples;Min_cycle;Max_cycle;Signal;HPM_P1;HPM_P2
2023/07/13 08:18:21;;;;;;;1573.03;897.20;;;;;;;22.67;46.43;96788.75;2100632;27;21068;-58
2023/07/13 08:20:30;;;;;;;1179.50;999.90;;;;;;;23.10;47.10;96791.09;2106059;27;20880;-58
2023/07/13 08:21:32;;;;;;;1176.72;999.90;;;;;;;23.52;46.78;96784.56;2098547;28;20192;-58
2023/07/13 08:22:35;;;;;;;2250.00;999.90;;;;;;;23.45;45.93;96792.28;2098668;28;20219;-58
2023/07/13 08:23:36;;;;;;;2250.00;999.90;;;;;;;23.42;44.94;96789.91;2099033;28;20214;-58
2023/07/13 08:24:38;;;;;;;2250.00;999.90;;;;;;;23.43;44.95;96784.44;2099723;28;20921;-57
2023/07/13 08:25:40;;;;;;;2250.00;999.90;;;;;;;23.35;44.20;96783.47;2095029;28;20200;-58
2023/07/13 08:26:41;;;;;;;2250.00;999.90;;;;;;;23.38;45.27;96784.03;2095591;28;20215;-57
2023/07/13 08:29:10;;;;;;;2250.00;999.90;;;;;;;23.69;44.54;96786.44;2084955;28;21067;-58
2023/07/13 08:30:12;;;;;;;2250.00;999.90;;;;;;;23.72;44.28;96785.28;2078123;28;20230;-58
2023/07/13 08:31:13;;;;;;;2250.00;999.90;;;;;;;23.67;44.89;96785.75;2080081;28;20229;-58
2023/07/13 08:32:17;;;;;;;2250.00;999.90;;;;;;;23.66;44.61;96784.06;2080693;28;20205;-58
2023/07/13 08:33:21;;;;;;;2250.00;999.90;;;;;;;23.37;44.04;96781.53;2079848;28;20202;-58
2023/07/13 08:34:22;;;;;;;2250.00;999.90;;;;;;;23.04;44.56;96781.84;2082646;28;20215;-58
2023/07/13 08:35:25;;;;;;;2250.00;999.90;;;;;;;23.19;45.09;96784.94;2082766;28;20839;-58
2023/07/13 08:36:27;;;;;;;2250.00;999.90;;;;;;;23.73;44.89;96789.66;2083663;28;20200;-57
2023/07/13 08:37:29;;;;;;;2250.00;999.90;;;;;;;24.19;44.48;96785.22;2082615;28;20195;-58
2023/07/13 08:38:30;;;;;;;2250.00;999.90;;;;;;;24.51;44.00;96786.53;2081829;28;20293;-57
2023/07/13 08:39:33;;;;;;;2250.00;999.90;;;;;;;24.08;43.36;96785.44;2081814;28;20205;-57
2023/07/13 08:40:36;;;;;;;2250.00;999.90;;;;;;;24.20;44.31;96784.22;2079994;28;20194;-58
2023/07/13 08:41:38;;;;;;;2250.00;999.90;;;;;;;24.15;43.70;96786.50;2082300;28;20199;-58
2023/07/13 08:42:46;;;;;;;2250.00;999.90;;;;;;;24.30;44.30;96792.16;2082344;28;20685;-58
2023/07/13 08:43:53;;;;;;;2250.00;999.90;;;;;;;24.58;44.19;96784.94;2081561;28;20299;-57
2023/07/13 08:45:17;;;;;;;2250.00;999.90;;;;;;;24.87;44.02;96791.84;2081582;28;20199;-58
2023/07/13 08:46:36;;;;;;;2250.00;999.90;;;;;;;25.14;43.38;96784.72;2083214;28;20263;-58
2023/07/13 08:47:42;;;;;;;2250.00;999.90;;;;;;;25.17;43.46;96788.91;2078537;28;20256;-60
2023/07/13 08:49:09;;;;;;;2250.00;999.90;;;;;;;24.57;43.15;96791.25;2082428;28;20225;-60
2023/07/13 08:50:15;;;;;;;2250.00;999.90;;;;;;;24.71;43.17;96781.03;2081687;28;20196;-60
2023/07/13 08:51:34;;;;;;;2250.00;999.90;;;;;;;24.56;43.41;96797.56;2079455;28;20231;-60
2023/07/13 08:52:42;;;;;;;2250.00;999.90;;;;;;;24.09;43.88;96793.28;2078315;28;20192;-60
2023/07/13 08:54:51;;;;;;;2250.00;999.90;;;;;;;24.53;43.13;96789.91;2099053;27;20558;-58
2023/07/13 08:55:59;;;;;;;2250.00;999.90;;;;;;;24.70;43.50;96790.06;2086844;27;20246;-58
2023/07/13 08:57:11;;;;;;;2250.00;999.90;;;;;;;24.31;43.19;96791.16;2078530;28;20753;-57
2023/07/13 08:58:15;;;;;;;2250.00;999.90;;;;;;;24.81;43.35;96792.50;2079293;28;20211;-58
2023/07/13 08:59:20;;;;;;;2250.00;999.90;;;;;;;25.00;43.57;96791.47;2079509;28;20197;-57
2023/07/13 09:00:33;;;;;;;2250.00;999.90;;;;;;;25.15;42.84;96791.72;2084201;28;20204;-57
2023/07/13 09:02:00;;;;;;;2250.00;999.90;;;;;;;25.36;42.39;96791.41;2091431;28;20219;-58
2023/07/13 09:03:02;;;;;;;2250.00;999.90;;;;;;;25.00;42.38;96793.28;2089498;28;20249;-58
2023/07/13 09:04:22;;;;;;;2250.00;999.90;;;;;;;24.93;43.04;96785.91;2091014;28;20708;-57
2023/07/13 09:05:38;;;;;;;2250.00;999.90;;;;;;;24.53;42.94;96781.88;2085342;28;20196;-58
2023/07/13 09:06:45;;;;;;;2250.00;999.90;;;;;;;24.63;43.16;96797.81;2083772;28;20342;-58
2023/07/13 09:07:55;;;;;;;2250.00;999.90;;;;;;;24.57;42.48;96795.75;2086458;28;20266;-57
2023/07/13 09:09:06;;;;;;;2250.00;999.90;;;;;;;25.02;43.22;96788.66;2086042;28;20198;-58
2023/07/13 09:10:22;;;;;;;2250.00;999.90;;;;;;;24.90;42.95;96796.91;2083968;28;20254;-58
2023/07/13 09:11:43;;;;;;;2250.00;999.90;;;;;;;24.56;42.45;96784.22;2087308;28;20223;-57
2023/07/13 09:13:04;;;;;;;2250.00;999.90;;;;;;;24.83;43.89;96795.00;2087786;28;20227;-58
2023/07/13 09:14:49;;;;;;;2250.00;999.90;;;;;;;24.92;43.37;96794.06;2088558;28;20318;-57
2023/07/13 09:15:51;;;;;;;2250.00;999.90;;;;;;;25.21;42.63;96803.63;2070255;28;20288;-58
2023/07/13 09:16:54;;;;;;;2250.00;999.90;;;;;;;25.61;42.41;96790.69;2086375;28;20220;-58
2023/07/13 09:18:03;;;;;;;2250.00;999.90;;;;;;;25.74;41.81;96794.59;2087732;28;20280;-58
2023/07/13 09:19:11;;;;;;;2250.00;999.90;;;;;;;25.50;41.23;96789.97;2087074;28;20197;-58
2023/07/13 09:20:31;;;;;;;2250.00;999.90;;;;;;;25.82;41.93;96792.97;2088244;28;20280;-58
2023/07/13 09:21:38;;;;;;;2250.00;999.90;;;;;;;26.02;42.25;96788.19;2088712;28;20852;-58
2023/07/13 09:22:41;;;;;;;2250.00;999.90;;;;;;;26.17;41.63;96794.63;2086235;28;20192;-58
2023/07/13 09:23:43;;;;;;;2250.00;999.90;;;;;;;25.83;41.90;96784.78;2091989;28;20268;-58
2023/07/13 09:24:57;;;;;;;2250.00;999.90;;;;;;;26.06;42.69;96792.25;2087520;28;20291;-58
2023/07/13 09:26:06;;;;;;;2250.00;999.90;;;;;;;25.90;41.67;96793.84;2089867;28;20222;-59
2023/07/13 09:27:21;;;;;;;1369.78;738.72;;;;;;;25.63;41.15;96788.72;2088728;28;20232;-58
2023/07/13 09:28:26;;;;;;;2250.00;999.90;;;;;;;25.48;41.87;96799.97;2084955;28;20241;-58
2023/07/13 09:29:37;;;;;;;2250.00;999.90;;;;;;;25.08;42.58;96801.38;2087969;28;20648;-58
2023/07/13 09:30:56;;;;;;;2250.00;999.90;;;;;;;25.52;43.04;96793.34;2084572;28;20284;-58
2023/07/13 09:32:03;;;;;;;2250.00;999.90;;;;;;;25.34;41.92;96792.53;2084485;28;20206;-58
2023/07/13 09:33:05;;;;;;;2250.00;999.90;;;;;;;25.23;42.50;96791.78;2091754;28;20192;-58
2023/07/13 09:34:11;;;;;;;2250.00;999.90;;;;;;;25.52;43.19;96787.13;2086333;28;20231;-58
2023/07/13 09:35:18;;;;;;;2250.00;999.90;;;;;;;25.45;43.41;96794.13;2089268;28;20197;-59
2023/07/13 09:36:24;;;;;;;2250.00;999.90;;;;;;;25.61;42.58;96788.03;2090265;28;20687;-58
2023/07/13 09:37:31;;;;;;;2250.00;999.90;;;;;;;25.71;42.33;96794.06;2084548;28;20209;-58
2023/07/13 09:38:34;;;;;;;2250.00;999.90;;;;;;;26.03;42.76;96797.88;2085449;28;20682;-58
2023/07/13 09:39:41;;;;;;;2250.00;999.90;;;;;;;26.11;41.90;96789.09;2084465;28;20203;-58
2023/07/13 09:41:04;;;;;;;2250.00;999.90;;;;;;;25.83;42.28;96791.97;2086490;28;20373;-58
2023/07/13 09:42:21;;;;;;;2250.00;999.90;;;;;;;25.87;42.79;96785.31;2088544;28;20226;-58
2023/07/13 09:43:23;;;;;;;2250.00;999.90;;;;;;;25.37;42.94;96787.75;2089243;28;20370;-58
2023/07/13 09:44:35;;;;;;;2250.00;999.90;;;;;;;25.91;43.39;96792.84;2085378;28;20711;-58
2023/07/13 09:45:37;;;;;;;2250.00;999.90;;;;;;;26.43;42.43;96785.63;2084682;28;20629;-58
2023/07/13 09:46:45;;;;;;;2250.00;999.90;;;;;;;26.33;42.52;96788.47;2087620;28;20204;-58
2023/07/13 09:47:48;;;;;;;2250.00;999.90;;;;;;;26.18;42.13;96790.97;2091474;28;20587;-58
2023/07/13 09:48:49;;;;;;;2250.00;999.90;;;;;;;26.07;42.02;96789.41;2089130;28;20201;-58
2023/07/13 09:49:58;;;;;;;2250.00;999.90;;;;;;;26.01;42.24;96791.88;2085399;28;20189;-58
2023/07/13 09:51:12;;;;;;;2250.00;999.90;;;;;;;26.15;41.84;96785.09;2087515;28;20808;-58
2023/07/13 09:52:15;;;;;;;2250.00;999.90;;;;;;;26.24;41.26;96784.97;2088061;28;20207;-58
2023/07/13 09:53:19;;;;;;;2250.00;999.90;;;;;;;25.99;41.69;96791.19;2086505;28;20204;-58
2023/07/13 09:54:24;;;;;;;934.97;846.75;;;;;;;25.32;41.78;96781.16;2084902;28;20242;-58
2023/07/13 09:55:28;;;;;;;1257.45;887.35;;;;;;;25.45;42.02;96781.59;2085685;28;20285;-58
2023/07/13 09:56:31;;;;;;;2250.00;999.90;;;;;;;25.33;42.46;96788.16;2087303;28;20196;-58
2023/07/13 09:57:33;;;;;;;2250.00;999.90;;;;;;;25.54;42.50;96779.81;2088953;28;20228;-58
2023/07/13 09:58:52;;;;;;;2250.00;999.90;;;;;;;25.63;42.77;96778.03;2087896;28;20201;-58
2023/07/13 09:59:56;;;;;;;2250.00;999.90;;;;;;;25.68;42.60;96783.72;2088529;28;20196;-58
2023/07/13 10:01:04;;;;;;;2250.00;999.90;;;;;;;25.90;42.24;96783.16;2086118;28;20238;-58
2023/07/13 10:02:33;;;;;;;2250.00;999.90;;;;;;;25.94;42.23;96778.31;2085057;28;20195;-58
2023/07/13 10:03:39;;;;;;;2250.00;999.90;;;;;;;25.74;42.41;96791.94;2085134;28;20196;-58
2023/07/13 10:04:41;;;;;;;2250.00;999.90;;;;;;;25.93;42.00;96790.00;2087227;28;20201;-58
2023/07/13 10:05:44;;;;;;;2250.00;999.90;;;;;;;26.21;41.96;96787.94;2082258;28;20238;-58
2023/07/13 10:06:47;;;;;;;2250.00;999.90;;;;;;;26.26;41.79;96786.59;2079225;28;20193;-58
2023/07/13 10:07:51;;;;;;;789.78;705.42;;;;;;;26.03;41.23;96790.72;2079263;28;20204;-58
2023/07/13 10:08:55;;;;;;;1020.47;919.45;;;;;;;25.77;41.41;96790.78;2081422;28;20189;-58
2023/07/13 10:10:00;;;;;;;2250.00;999.90;;;;;;;25.35;42.27;96783.50;2081700;28;20189;-58
2023/07/13 10:11:17;;;;;;;1034.68;939.75;;;;;;;25.79;41.24;96778.09;2081011;28;20395;-58
2023/07/13 10:12:19;;;;;;;1004.83;913.22;;;;;;;25.87;41.08;96783.44;2077377;28;20289;-58
2023/07/13 10:13:55;;;;;;;986.33;895.90;;;;;;;25.62;42.13;96779.84;2081382;28;20261;-58
2023/07/13 10:15:00;;;;;;;2250.00;999.90;;;;;;;25.57;42.70;96783.00;2081901;28;20601;-58
2023/07/13 10:16:24;;;;;;;1214.10;853.30;;;;;;;25.30;42.93;96786.66;2079113;28;20911;-58
2023/07/13 10:17:30;;;;;;;2250.00;999.90;;;;;;;25.01;43.39;96787.78;2079270;28;20248;-58
2023/07/13 10:18:39;;;;;;;2250.00;999.90;;;;;;;25.87;42.96;96788.81;2081653;28;20197;-58
2023/07/13 10:19:46;;;;;;;2250.00;999.90;;;;;;;26.08;41.60;96782.25;2081418;28;20283;-58
2023/07/13 10:20:47;;;;;;;1062.22;959.97;;;;;;;25.95;41.13;96779.97;2080256;28;20225;-58
2023/07/13 10:22:01;;;;;;;980.50;889.80;;;;;;;26.18;40.99;96790.97;2080508;28;20194;-58
2023/07/13 10:23:10;;;;;;;2250.00;999.90;;;;;;;25.99;42.14;96777.81;2074242;28;20264;-58
2023/07/13 10:24:23;;;;;;;2250.00;999.90;;;;;;;26.08;43.17;96788.41;2076326;28;20824;-58
2023/07/13 10:25:29;;;;;;;2250.00;999.90;;;;;;;26.56;42.35;96783.31;2083152;28;20716;-58
2023/07/13 10:26:34;;;;;;;2250.00;999.90;;;;;;;26.83;41.77;96786.72;2085653;28;20192;-58
2023/07/13 10:27:36;;;;;;;2250.00;999.90;;;;;;;26.51;42.38;96783.00;2080158;28;20349;-58
2023/07/13 10:28:39;;;;;;;2250.00;999.90;;;;;;;26.69;42.54;96779.28;2079883;28;20202;-58
2023/07/13 10:30:17;;;;;;;2250.00;999.90;;;;;;;26.93;41.82;96783.88;2082046;28;20241;-58
2023/07/13 10:31:20;;;;;;;912.42;833.83;;;;;;;26.40;41.73;96788.66;2082252;28;20220;-58
2023/07/13 10:32:24;;;;;;;983.30;894.13;;;;;;;26.27;41.42;96782.94;2082590;28;20208;-58
2023/07/13 10:33:26;;;;;;;782.70;715.42;;;;;;;26.02;40.73;96780.19;2082756;28;20232;-59
2023/07/13 10:34:28;;;;;;;857.55;786.05;;;;;;;25.76;40.95;96786.41;2082210;28;20198;-58
2023/07/13 10:35:31;;;;;;;854.47;783.03;;;;;;;25.72;41.23;96780.53;2082239;28;20221;-58
2023/07/13 10:36:40;;;;;;;939.83;850.35;;;;;;;25.66;42.39;96783.03;2083430;28;20798;-58
2023/07/13 10:38:06;;;;;;;2250.00;999.90;;;;;;;25.01;44.30;96790.47;2081921;28;20193;-58
2023/07/13 10:39:16;;;;;;;2250.00;999.90;;;;;;;25.22;44.10;96795.47;2080721;28;20208;-58
2023/07/13 10:40:29;;;;;;;2250.00;999.90;;;;;;;25.89;43.82;96789.50;2081337;28;20657;-58
2023/07/13 10:41:36;;;;;;;2250.00;999.90;;;;;;;26.52;42.07;96795.34;2081463;28;20246;-58
2023/07/13 10:42:42;;;;;;;2250.00;999.90;;;;;;;27.28;41.49;96792.53;2080144;28;20194;-58
2023/07/13 10:43:52;;;;;;;2250.00;999.90;;;;;;;27.55;41.21;96787.78;2081730;28;20201;-58
2023/07/13 10:44:53;;;;;;;2250.00;999.90;;;;;;;26.81;41.67;96798.59;2082470;28;20607;-58
2023/07/13 10:45:56;;;;;;;524.58;469.75;;;;;;;26.99;41.28;96795.75;2082721;28;20259;-58
2023/07/13 10:47:01;;;;;;;1047.68;949.53;;;;;;;26.89;41.82;96790.53;2079548;28;20257;-58
2023/07/13 10:48:04;;;;;;;1034.05;933.30;;;;;;;27.39;41.40;96791.38;2079335;28;20192;-58
2023/07/13 10:49:09;;;;;;;1040.63;942.50;;;;;;;27.18;41.02;96797.22;2076955;28;20680;-58
2023/07/13 10:50:21;;;;;;;938.83;849.10;;;;;;;26.24;41.88;96792.97;2080130;28;20564;-58
2023/07/13 10:51:23;;;;;;;982.63;889.10;;;;;;;25.85;42.86;96790.81;2080324;28;20299;-58
2023/07/13 10:52:46;;;;;;;1003.05;907.50;;;;;;;25.49;42.66;96790.97;2080526;28;20256;-58
2023/07/13 10:54:07;;;;;;;1010.17;917.92;;;;;;;25.68;42.19;96783.72;2082339;28;20197;-58
2023/07/13 10:55:36;;;;;;;967.40;876.33;;;;;;;25.51;42.80;96793.47;2082622;28;20212;-58
2023/07/13 10:56:41;;;;;;;1057.80;955.80;;;;;;;26.10;42.13;96790.91;2083349;28;20257;-58
2023/07/13 10:57:43;;;;;;;2200.00;999.90;;;;;;;26.58;41.30;96793.88;2083697;28;20761;-58
2023/07/13 10:58:45;;;;;;;1020.20;927.28;;;;;;;26.50;41.44;96796.50;2083261;28;20645;-58
2023/07/13 11:00:10;;;;;;;1028.95;930.55;;;;;;;27.10;40.61;96792.72;2084314;28;20218;-58
2023/07/13 11:01:17;;;;;;;770.05;705.15;;;;;;;26.99;39.17;96785.84;2075165;28;20229;-58
2023/07/13 11:02:27;;;;;;;491.88;441.77;;;;;;;26.74;39.73;96782.38;2084549;28;20205;-58
2023/07/13 11:03:31;;;;;;;650.67;590.03;;;;;;;26.47;39.71;96778.13;2083715;28;20227;-58
2023/07/13 11:04:44;;;;;;;621.58;561.70;;;;;;;26.26;40.50;96775.91;2082933;28;20203;-58
2023/07/13 11:05:50;;;;;;;662.75;600.80;;;;;;;25.86;40.80;96776.41;2082644;28;20664;-58
2023/07/13 11:06:58;;;;;;;472.88;417.08;;;;;;;25.75;40.66;96769.53;2081933;28;20196;-58
2023/07/13 11:08:16;;;;;;;605.80;545.45;;;;;;;25.43;41.05;96765.72;2081191;28;20297;-58
2023/07/13 11:09:38;;;;;;;491.35;440.25;;;;;;;25.77;41.06;96771.22;2082649;28;20197;-58
2023/07/13 11:10:55;;;;;;;946.88;850.40;;;;;;;26.89;40.50;96778.00;2084949;28;20201;-58
2023/07/13 11:12:06;;;;;;;634.72;577.38;;;;;;;26.84;40.11;96774.16;2083655;28;20211;-58
2023/07/13 11:13:47;;;;;;;640.72;579.65;;;;;;;26.66;39.76;96764.41;2082806;28;20209;-58
2023/07/13 11:14:54;;;;;;;643.90;581.50;;;;;;;27.51;39.00;96773.88;2079536;28;20837;-58
2023/07/13 11:15:56;;;;;;;598.20;537.65;;;;;;;27.39;38.77;96780.66;2078537;28;20232;-58
2023/07/13 11:16:57;;;;;;;1013.67;915.08;;;;;;;26.81;39.00;96777.16;2080696;28;20194;-58
2023/07/13 11:18:04;;;;;;;594.90;539.33;;;;;;;26.96;39.58;96780.84;2080099;28;20210;-58
2023/07/13 11:19:05;;;;;;;647.83;586.63;;;;;;;27.09;39.15;96779.50;2079449;28;20197;-58
2023/07/13 11:20:13;;;;;;;852.90;772.22;;;;;;;27.38;38.53;96793.16;2078638;28;20583;-58
2023/07/13 11:21:16;;;;;;;589.97;530.42;;;;;;;27.59;37.83;96781.09;2077728;28;20222;-58
2023/07/13 11:22:47;;;;;;;1083.63;977.83;;;;;;;27.19;38.47;96786.34;2079647;28;20711;-58
2023/07/13 11:24:03;;;;;;;953.53;868.85;;;;;;;27.17;37.84;96779.47;2080392;28;20228;-58
2023/07/13 11:25:29;;;;;;;383.15;347.50;;;;;;;27.08;38.04;96775.13;2080015;28;20224;-58
2023/07/13 11:26:45;;;;;;;811.30;730.42;;;;;;;27.92;37.51;96775.59;2079758;28;20251;-58
2023/07/13 11:28:03;;;;;;;1014.00;916.75;;;;;;;27.34;38.34;96754.31;2080107;28;20224;-58
2023/07/13 11:29:29;;;;;;;773.60;701.38;;;;;;;27.11;38.46;96780.16;2079864;28;20202;-58
2023/07/13 11:30:48;;;;;;;1178.82;999.90;;;;;;;26.75;39.22;96775.97;2069848;28;20797;-58
2023/07/13 11:31:56;;;;;;;1126.78;999.90;;;;;;;27.23;38.53;96780.66;2077774;28;20193;-59
2023/07/13 11:33:26;;;;;;;1096.13;989.15;;;;;;;27.89;38.44;96769.75;2077970;28;20221;-58
2023/07/13 11:34:33;;;;;;;772.50;704.95;;;;;;;28.27;36.87;96775.28;2080020;28;20198;-58
2023/07/13 11:35:38;;;;;;;388.67;351.35;;;;;;;28.60;37.14;96772.38;2083477;28;20213;-58
2023/07/13 11:36:44;;;;;;;794.92;712.58;;;;;;;28.45;36.67;96769.63;2082061;28;20552;-58
2023/07/13 11:37:46;;;;;;;442.65;401.35;;;;;;;28.47;37.26;96770.28;2081931;28;20228;-59
2023/07/13 11:39:10;;;;;;;723.88;655.63;;;;;;;28.17;37.32;96770.94;2084429;28;20197;-58
2023/07/13 11:40:14;;;;;;;450.48;408.77;;;;;;;27.96;37.52;96763.50;2084597;28;20207;-58
2023/07/13 11:41:19;;;;;;;465.17;422.48;;;;;;;27.80;37.36;96766.25;2081965;28;20236;-59
2023/07/13 11:42:21;;;;;;;463.27;420.77;;;;;;;28.48;37.44;96769.25;2076594;28;20676;-58
2023/07/13 11:43:23;;;;;;;1005.70;909.17;;;;;;;28.80;37.17;96759.31;2075595;28;20203;-58
2023/07/13 11:44:26;;;;;;;582.83;533.08;;;;;;;27.93;37.90;96754.97;2083000;28;20200;-59
2023/07/13 11:45:28;;;;;;;652.13;599.45;;;;;;;27.79;38.50;96761.91;2080602;28;20203;-58
2023/07/13 11:46:53;;;;;;;565.13;515.78;;;;;;;27.45;38.45;96757.66;2080831;28;20705;-58
2023/07/13 11:48:00;;;;;;;662.05;603.33;;;;;;;27.44;38.66;96759.53;2081757;28;20197;-58
2023/07/13 11:49:05;;;;;;;1140.15;999.90;;;;;;;26.78;39.73;96764.09;2080014;28;20225;-58
2023/07/13 11:50:19;;;;;;;661.55;602.42;;;;;;;26.94;39.41;96773.97;2078397;28;20196;-59
2023/07/13 11:51:27;;;;;;;613.67;558.80;;;;;;;26.57;39.51;96765.41;2076498;28;20257;-59
2023/07/13 11:52:36;;;;;;;622.88;563.45;;;;;;;26.38;40.24;96772.75;2077475;28;20209;-58
2023/07/13 11:53:45;;;;;;;926.10;839.42;;;;;;;26.26;40.22;96773.22;2079717;28;20193;-58
2023/07/13 11:54:55;;;;;;;813.35;736.08;;;;;;;26.44;39.99;96773.94;2080978;28;20188;-58
2023/07/13 11:55:57;;;;;;;561.08;507.20;;;;;;;26.92;39.79;96765.25;2080534;28;20254;-59
2023/07/13 11:57:06;;;;;;;530.33;478.38;;;;;;;26.73;39.67;96769.97;2081208;28;20202;-59
2023/07/13 11:58:09;;;;;;;828.58;752.08;;;;;;;26.36;39.45;96768.56;2079700;28;20239;-59
2023/07/13 11:59:13;;;;;;;801.33;728.85;;;;;;;26.67;39.40;96763.41;2080408;28;20248;-58
2023/07/13 12:00:23;;;;;;;1181.00;999.90;;;;;;;26.46;39.83;96755.88;2079077;28;20293;-59
2023/07/13 12:01:32;;;;;;;973.10;880.05;;;;;;;26.97;38.60;96765.59;2078157;28;20712;-59
2023/07/13 12:02:42;;;;;;;1016.85;916.45;;;;;;;26.84;38.68;96761.59;2082010;28;20201;-58
2023/07/13 12:03:46;;;;;;;1109.63;982.67;;;;;;;27.62;38.70;96764.66;2081218;28;20204;-59
2023/07/13 12:04:51;;;;;;;733.67;667.40;;;;;;;27.57;37.57;96768.88;2082819;28;20338;-58
2023/07/13 12:05:58;;;;;;;259.10;207.93;;;;;;;27.26;37.89;96772.25;2084543;28;20221;-59
2023/07/13 12:07:17;;;;;;;544.85;495.95;;;;;;;27.57;37.79;96761.66;2082606;28;20578;-59
2023/07/13 12:08:19;;;;;;;334.85;299.08;;;;;;;27.64;37.00;96769.84;2100215;28;20667;-59
2023/07/13 12:09:27;;;;;;;592.30;541.95;;;;;;;27.44;38.35;96772.06;2095316;28;20437;-59
2023/07/13 12:10:32;;;;;;;651.22;594.95;;;;;;;27.36;38.15;96764.84;2082952;28;20224;-58
2023/07/13 12:11:37;;;;;;;964.17;871.72;;;;;;;28.02;37.72;96767.31;2081692;28;20247;-59
2023/07/13 12:13:00;;;;;;;653.13;597.47;;;;;;;28.14;36.98;96759.75;2081467;28;20197;-59
2023/07/13 12:14:02;;;;;;;335.20;300.65;;;;;;;28.31;36.68;96768.53;2082673;28;20246;-59
2023/07/13 12:15:07;;;;;;;805.42;740.50;;;;;;;27.78;36.94;96769.13;2079246;28;20204;-59
2023/07/13 12:16:16;;;;;;;837.80;768.25;;;;;;;28.01;37.47;96765.63;2080910;28;20229;-59
2023/07/13 12:17:23;;;;;;;934.40;856.72;;;;;;;27.62;37.19;96761.16;2084243;28;20192;-59
2023/07/13 12:18:30;;;;;;;238.48;167.93;;;;;;;27.17;37.43;96764.25;2079591;28;20196;-60
2023/07/13 12:19:31;;;;;;;637.30;581.30;;;;;;;27.83;37.30;96769.44;2080547;28;20243;-59
2023/07/13 12:20:38;;;;;;;199.25;115.93;;;;;;;27.68;37.71;96766.66;2081427;28;20201;-59
2023/07/13 12:21:41;;;;;;;563.22;519.17;;;;;;;27.51;36.65;96763.16;2080718;28;20656;-59
2023/07/13 12:22:49;;;;;;;708.47;644.95;;;;;;;27.93;37.08;96763.84;2081583;28;20201;-59
2023/07/13 12:23:51;;;;;;;952.58;876.42;;;;;;;27.86;36.43;96766.41;2080881;28;20201;-59
2023/07/13 12:24:54;;;;;;;836.70;767.90;;;;;;;27.77;36.93;96772.81;2082413;28;20200;-59
2023/07/13 12:25:57;;;;;;;417.88;385.65;;;;;;;27.41;36.29;96746.44;2082090;28;20235;-59
2023/07/13 12:27:03;;;;;;;766.13;705.33;;;;;;;26.92;37.96;96762.59;2079947;28;20221;-59
2023/07/13 12:28:21;;;;;;;839.83;774.97;;;;;;;26.62;38.60;96760.38;2079025;28;20233;-59
2023/07/13 12:29:22;;;;;;;724.90;661.05;;;;;;;27.13;38.04;96770.94;2075863;28;20242;-59
2023/07/13 12:30:29;;;;;;;607.65;552.67;;;;;;;27.50;37.61;96757.97;2077621;28;20201;-59
2023/07/13 12:31:42;;;;;;;555.72;503.70;;;;;;;27.81;37.60;96771.44;2078280;28;20205;-59
2023/07/13 12:32:56;;;;;;;882.70;807.90;;;;;;;27.73;37.20;96768.81;2080935;28;20228;-58
2023/07/13 12:34:12;;;;;;;591.78;537.95;;;;;;;27.93;36.70;96771.88;2080578;28;20197;-59
2023/07/13 12:35:18;;;;;;;890.50;817.75;;;;;;;27.75;37.02;96763.28;2080011;28;20727;-59
2023/07/13 12:36:24;;;;;;;648.65;599.78;;;;;;;27.34;37.30;96756.19;2083674;28;20305;-58
2023/07/13 12:37:25;;;;;;;275.55;254.23;;;;;;;26.60;37.24;96759.75;2083525;28;20247;-58
2023/07/13 12:38:27;;;;;;;328.83;292.65;;;;;;;27.19;38.31;96767.56;2080533;28;20201;-58
2023/07/13 12:39:37;;;;;;;621.08;563.03;;;;;;;27.65;37.95;96766.16;2079359;28;20649;-58
2023/07/13 12:40:40;;;;;;;177.65;72.10;;;;;;;27.59;37.47;96769.53;2083158;28;20219;-58
2023/07/13 12:41:44;;;;;;;930.47;853.15;;;;;;;26.83;38.22;96769.78;2084467;28;20280;-58
2023/07/13 12:42:48;;;;;;;878.38;806.58;;;;;;;26.96;37.82;96761.25;2083023;28;20242;-58
2023/07/13 12:43:50;;;;;;;865.65;795.15;;;;;;;26.80;37.56;96757.56;2082845;28;20203;-58
2023/07/13 12:45:02;;;;;;;540.75;491.00;;;;;;;27.23;38.02;96769.94;2083429;28;20263;-58
2023/07/13 12:46:16;;;;;;;375.27;328.15;;;;;;;27.89;37.57;96769.75;2080740;28;20253;-58
2023/07/13 12:47:20;;;;;;;697.85;633.97;;;;;;;28.34;37.14;96758.28;2079527;28;20330;-59
2023/07/13 12:48:22;;;;;;;255.23;178.93;;;;;;;28.13;37.09;96764.28;2082905;28;20257;-59
2023/07/13 12:49:47;;;;;;;631.60;574.30;;;;;;;28.64;36.85;96771.81;2078450;28;20193;-59
2023/07/13 12:50:50;;;;;;;914.67;840.53;;;;;;;28.16;36.62;96768.44;2081902;28;20270;-59
2023/07/13 12:51:57;;;;;;;912.53;837.92;;;;;;;28.38;36.76;96774.88;2078589;28;20285;-59
2023/07/13 12:53:04;;;;;;;765.03;701.65;;;;;;;27.89;36.78;96769.75;2084468;28;20292;-58
2023/07/13 12:54:15;;;;;;;492.98;457.40;;;;;;;26.81;37.83;96778.00;2082717;28;20290;-58
2023/07/13 12:55:18;;;;;;;458.65;426.10;;;;;;;26.32;38.30;96770.75;2082986;28;20759;-58
2023/07/13 12:56:25;;;;;;;905.10;830.08;;;;;;;26.19;38.79;96773.06;2083190;28;20229;-58
2023/07/13 12:57:27;;;;;;;792.28;728.97;;;;;;;26.15;39.18;96774.38;2080056;28;20196;-59
2023/07/13 12:58:36;;;;;;;700.65;637.65;;;;;;;26.60;38.42;96761.56;2079700;28;20885;-59
2023/07/13 12:59:37;;;;;;;186.43;86.90;;;;;;;27.04;38.59;96770.09;2080345;28;20204;-59
2023/07/13 13:00:39;;;;;;;299.55;258.27;;;;;;;27.67;37.45;96766.81;2078406;28;20201;-59
2023/07/13 13:01:41;;;;;;;498.20;451.27;;;;;;;28.12;37.22;96764.47;2081420;28;20254;-59
2023/07/13 13:02:42;;;;;;;841.92;772.40;;;;;;;28.13;37.05;96766.13;2078667;28;20289;-59
2023/07/13 13:03:53;;;;;;;929.33;850.35;;;;;;;28.24;36.64;96759.50;2080880;28;20211;-59
2023/07/13 13:04:56;;;;;;;429.25;385.92;;;;;;;28.79;37.08;96768.41;2082187;28;20197;-59
2023/07/13 13:06:05;;;;;;;900.85;827.47;;;;;;;28.43;36.26;96771.63;2079732;28;20309;-59
2023/07/13 13:07:09;;;;;;;761.33;703.22;;;;;;;28.54;36.52;96771.22;2078933;28;20692;-60
2023/07/13 13:08:11;;;;;;;761.75;701.55;;;;;;;28.23;37.06;96763.22;2077702;28;20198;-60
2023/07/13 13:09:15;;;;;;;754.00;697.35;;;;;;;28.62;36.25;96771.19;2077770;28;20205;-59
2023/07/13 13:10:17;;;;;;;871.28;802.33;;;;;;;28.38;36.83;96771.34;2077253;28;20198;-59
2023/07/13 13:11:20;;;;;;;867.97;799.35;;;;;;;28.38;36.77;96766.81;2076646;28;20224;-59
2023/07/13 13:12:22;;;;;;;774.25;714.67;;;;;;;28.57;36.50;96775.41;2077885;28;20200;-59
2023/07/13 13:13:24;;;;;;;880.65;808.28;;;;;;;28.50;36.93;96760.00;2078365;28;20213;-59
2023/07/13 13:14:25;;;;;;;595.08;551.67;;;;;;;28.18;36.52;96758.38;2077462;28;20292;-59
2023/07/13 13:15:27;;;;;;;923.22;847.85;;;;;;;28.30;36.78;96762.34;2077481;28;20246;-59
2023/07/13 13:16:34;;;;;;;761.05;704.17;;;;;;;28.15;36.79;96758.72;2079126;28;20248;-59
2023/07/13 13:17:36;;;;;;;779.13;720.80;;;;;;;28.78;36.70;96762.16;2079013;28;20225;-59
2023/07/13 13:18:38;;;;;;;946.75;868.70;;;;;;;29.19;36.21;96768.19;2075579;28;20604;-59
2023/07/13 13:19:39;;;;;;;175.70;159.25;;;;;;;28.01;36.79;96761.13;2074544;28;20202;-59
2023/07/13 13:20:40;;;;;;;454.50;420.42;;;;;;;28.41;36.71;96774.50;2076357;28;20228;-59
2023/07/13 13:21:44;;;;;;;13.80;3.28;;;;;;;28.16;36.23;96763.09;2082237;28;20189;-59
2023/07/13 13:22:45;;;;;;;87.30;80.47;;;;;;;28.48;36.39;96761.19;2081422;28;20193;-59
2023/07/13 13:23:47;;;;;;;33.65;29.35;;;;;;;28.32;36.56;96757.63;2078954;28;20201;-59
2023/07/13 13:24:49;;;;;;;10.65;2.95;;;;;;;28.51;36.04;96764.34;2077319;28;20204;-59
2023/07/13 13:25:50;;;;;;;153.35;142.80;;;;;;;28.86;35.71;96763.13;2079899;28;20299;-59